createdAt,value
2023-04-14T00:00:18.301Z,87
2023-04-14T00:01:25.368Z,87
2023-04-14T00:02:32.528Z,87
2023-04-14T00:03:39.587Z,87
2023-04-14T00:04:46.782Z,87
2023-04-14T00:05:56.673Z,87
2023-04-14T00:07:03.804Z,88
2023-04-14T00:08:10.843Z,88
2023-04-14T00:09:17.962Z,88
2023-04-14T00:10:24.964Z,87
2023-04-14T00:11:35.649Z,87
2023-04-14T00:12:44.950Z,87
2023-04-14T00:13:53.750Z,87
2023-04-14T00:15:04.247Z,87
2023-04-14T00:16:11.584Z,87
2023-04-14T00:17:18.811Z,87
2023-04-14T00:18:25.806Z,87
2023-04-14T00:19:35.283Z,87
2023-04-14T00:20:42.293Z,87
2023-04-14T00:21:49.382Z,87
2023-04-14T00:22:56.458Z,87
2023-04-14T00:24:03.608Z,87
2023-04-14T00:25:10.686Z,87
2023-04-14T00:26:22.192Z,87
2023-04-14T00:27:32.221Z,87
2023-04-14T00:28:43.391Z,87
2023-04-14T00:29:50.674Z,87
2023-04-14T00:31:01.724Z,87
2023-04-14T00:32:09.479Z,87
2023-04-14T00:33:16.700Z,87
2023-04-14T00:34:23.806Z,87
2023-04-14T00:35:32.689Z,87
2023-04-14T00:36:39.746Z,87
2023-04-14T00:37:46.824Z,87
2023-04-14T00:38:54.011Z,87
2023-04-14T00:40:01.140Z,87
2023-04-14T00:41:08.559Z,87
2023-04-14T00:42:15.599Z,87
2023-04-14T00:43:22.602Z,87
2023-04-14T00:44:29.707Z,87
2023-04-14T00:45:36.905Z,87
2023-04-14T00:46:48.866Z,87
2023-04-14T00:47:56.060Z,87
2023-04-14T00:49:03.301Z,87
2023-04-14T00:50:10.158Z,87
2023-04-14T00:51:17.224Z,87
2023-04-14T00:52:25.175Z,88
2023-04-14T00:53:32.342Z,87
2023-04-14T00:54:39.456Z,87
2023-04-14T00:55:50.652Z,87
2023-04-14T00:56:57.766Z,87
2023-04-14T00:58:04.821Z,87
2023-04-14T00:59:12.179Z,88
2023-04-14T01:00:19.184Z,87
2023-04-14T01:01:26.340Z,87
2023-04-14T01:02:33.708Z,87
2023-04-14T01:03:44.722Z,88
2023-04-14T01:04:54.550Z,88
2023-04-14T01:05:58.758Z,88
2023-04-14T01:07:08.889Z,87
2023-04-14T01:08:15.942Z,87
2023-04-14T01:09:23.028Z,87
2023-04-14T01:10:30.156Z,87
2023-04-14T01:11:37.264Z,88
2023-04-14T01:12:50.172Z,87
2023-04-14T01:14:05.088Z,87
2023-04-14T01:15:17.932Z,87
2023-04-14T01:16:25.047Z,87
2023-04-14T01:17:35.284Z,87
2023-04-14T01:18:56.297Z,87
2023-04-14T01:20:13.561Z,87
2023-04-14T01:21:27.745Z,87
2023-04-14T01:22:34.823Z,87
2023-04-14T01:23:41.956Z,87
2023-04-14T01:24:51.808Z,87
2023-04-14T01:26:09.310Z,87
2023-04-14T01:27:19.186Z,87
2023-04-14T01:28:36.463Z,87
2023-04-14T01:29:53.890Z,87
2023-04-14T01:31:04.106Z,87
2023-04-14T01:32:16.248Z,87
2023-04-14T01:33:23.386Z,87
2023-04-14T01:34:31.435Z,87
2023-04-14T01:35:38.518Z,87
2023-04-14T01:36:51.118Z,87
2023-04-14T01:38:01.033Z,87
2023-04-14T01:39:08.240Z,87
2023-04-14T01:40:15.371Z,87
2023-04-14T01:41:22.445Z,87
2023-04-14T01:42:29.512Z,87
2023-04-14T01:43:36.705Z,87
2023-04-14T01:44:43.817Z,87
2023-04-14T01:45:50.895Z,87
2023-04-14T01:46:58.044Z,87
2023-04-14T01:48:05.350Z,87
2023-04-14T01:49:14.049Z,87
2023-04-14T01:50:21.241Z,87
2023-04-14T01:51:28.338Z,86
2023-04-14T01:52:39.197Z,87
2023-04-14T01:53:46.288Z,87
2023-04-14T01:54:53.479Z,87
2023-04-14T01:56:00.605Z,87
2023-04-14T01:57:07.876Z,87
2023-04-14T01:58:14.955Z,87
2023-04-14T01:59:22.059Z,87
2023-04-14T02:00:29.293Z,87
2023-04-14T02:01:36.506Z,87
2023-04-14T02:02:43.705Z,87
2023-04-14T02:03:50.767Z,87
2023-04-14T02:04:58.784Z,87
2023-04-14T02:06:05.918Z,87
2023-04-14T02:07:13.023Z,87
2023-04-14T02:08:20.225Z,87
2023-04-14T02:09:27.407Z,87
2023-04-14T02:10:38.727Z,87
2023-04-14T02:11:45.941Z,86
2023-04-14T02:12:53.012Z,86
2023-04-14T02:14:05.155Z,86
2023-04-14T02:15:16.728Z,86
2023-04-14T02:16:24.133Z,86
2023-04-14T02:17:34.553Z,87
2023-04-14T02:18:41.757Z,87
2023-04-14T02:19:48.963Z,87
2023-04-14T02:20:56.070Z,87
2023-04-14T02:22:03.233Z,87
2023-04-14T02:23:10.392Z,87
2023-04-14T02:24:17.514Z,87
2023-04-14T02:25:28.250Z,87
2023-04-14T02:26:37.545Z,87
2023-04-14T02:27:44.736Z,87
2023-04-14T02:28:56.975Z,87
2023-04-14T02:30:14.211Z,87
2023-04-14T02:31:21.527Z,87
2023-04-14T02:32:28.531Z,87
2023-04-14T02:33:38.389Z,87
2023-04-14T02:34:45.431Z,87
2023-04-14T02:36:02.360Z,87
2023-04-14T02:37:17.286Z,87
2023-04-14T02:38:24.542Z,87
2023-04-14T02:39:36.678Z,87
2023-04-14T02:40:43.905Z,87
2023-04-14T02:41:51.977Z,87
2023-04-14T02:43:05.034Z,87
2023-04-14T02:44:14.901Z,87
2023-04-14T02:45:25.733Z,87
2023-04-14T02:46:33.114Z,87
2023-04-14T02:47:43.211Z,87
2023-04-14T02:48:52.564Z,87
2023-04-14T02:50:02.525Z,87
2023-04-14T02:51:09.945Z,87
2023-04-14T02:52:17.544Z,87
2023-04-14T02:53:24.523Z,87
2023-04-14T02:54:31.464Z,87
2023-04-14T02:55:39.433Z,87
2023-04-14T02:56:46.472Z,87
2023-04-14T02:57:53.549Z,87
2023-04-14T02:59:00.719Z,87
2023-04-14T03:00:07.445Z,87
2023-04-14T03:01:14.599Z,87
2023-04-14T03:02:21.640Z,87
2023-04-14T03:03:28.684Z,87
2023-04-14T03:04:35.571Z,87
2023-04-14T03:05:43.290Z,87
2023-04-14T03:06:50.258Z,87
2023-04-14T03:07:57.204Z,87
2023-04-14T03:09:09.171Z,87
2023-04-14T03:10:16.095Z,87
2023-04-14T03:11:23.166Z,87
2023-04-14T03:12:30.098Z,87
2023-04-14T03:13:36.990Z,87
2023-04-14T03:14:43.919Z,87
2023-04-14T03:15:50.937Z,87
2023-04-14T03:16:57.882Z,87
2023-04-14T03:18:06.278Z,87
2023-04-14T03:19:13.178Z,87
2023-04-14T03:20:21.252Z,87
2023-04-14T03:21:28.190Z,87
2023-04-14T03:22:35.373Z,87
2023-04-14T03:23:46.785Z,87
2023-04-14T03:24:54.545Z,87
2023-04-14T03:26:04.547Z,87
2023-04-14T03:27:11.534Z,87
2023-04-14T03:28:18.547Z,87
2023-04-14T03:29:29.684Z,87
2023-04-14T03:30:36.680Z,87
2023-04-14T03:31:43.738Z,87
2023-04-14T03:32:50.615Z,87
2023-04-14T03:33:57.483Z,87
2023-04-14T03:35:08.698Z,87
2023-04-14T03:36:15.718Z,87
2023-04-14T03:37:22.730Z,87
2023-04-14T03:38:33.358Z,87
2023-04-14T03:39:44.422Z,87
2023-04-14T03:40:51.509Z,87
2023-04-14T03:41:58.516Z,87
2023-04-14T03:43:05.443Z,87
2023-04-14T03:44:12.379Z,87
2023-04-14T03:45:19.357Z,87
2023-04-14T03:46:26.358Z,87
2023-04-14T03:47:34.162Z,87
2023-04-14T03:48:41.160Z,87
2023-04-14T03:49:48.114Z,87
2023-04-14T03:50:55.158Z,87
2023-04-14T03:52:02.089Z,87
2023-04-14T03:53:09.222Z,87
2023-04-14T03:54:16.202Z,87
2023-04-14T03:55:23.107Z,87
2023-04-14T03:56:30.095Z,87
2023-04-14T03:57:40.371Z,87
2023-04-14T03:58:47.362Z,87
2023-04-14T03:59:55.706Z,87
2023-04-14T04:01:05.589Z,87
2023-04-14T04:02:12.691Z,87
2023-04-14T04:03:22.839Z,87
2023-04-14T04:04:29.768Z,87
2023-04-14T04:05:36.598Z,87
2023-04-14T04:06:43.551Z,87
2023-04-14T04:07:51.726Z,87
2023-04-14T04:08:59.002Z,87
2023-04-14T04:10:05.731Z,87
2023-04-14T04:11:12.744Z,87
2023-04-14T04:12:19.744Z,87
2023-04-14T04:13:26.634Z,87
2023-04-14T04:14:33.533Z,87
2023-04-14T04:15:40.435Z,87
2023-04-14T04:16:47.512Z,87
2023-04-14T04:17:54.458Z,87
2023-04-14T04:19:01.600Z,87
2023-04-14T04:20:08.321Z,88
2023-04-14T04:21:15.255Z,87
2023-04-14T04:22:22.281Z,87
2023-04-14T04:23:29.654Z,87
2023-04-14T04:24:36.654Z,87
2023-04-14T04:25:43.648Z,87
2023-04-14T04:26:51.950Z,87
2023-04-14T04:27:58.903Z,87
2023-04-14T04:29:05.922Z,87
2023-04-14T04:30:12.920Z,87
2023-04-14T04:31:20.683Z,87
2023-04-14T04:32:27.979Z,87
2023-04-14T04:33:34.794Z,87
2023-04-14T04:34:41.760Z,87
2023-04-14T04:35:48.705Z,87
2023-04-14T04:36:55.643Z,87
2023-04-14T04:38:05.551Z,87
2023-04-14T04:39:15.705Z,87
2023-04-14T04:40:22.656Z,87
2023-04-14T04:41:29.558Z,87
2023-04-14T04:42:39.391Z,87
2023-04-14T04:43:48.946Z,87
2023-04-14T04:44:55.871Z,87
2023-04-14T04:46:05.333Z,87
2023-04-14T04:47:15.036Z,87
2023-04-14T04:48:25.261Z,87
2023-04-14T04:49:32.264Z,87
2023-04-14T04:50:39.358Z,87
2023-04-14T04:51:46.338Z,87
2023-04-14T04:52:53.293Z,87
2023-04-14T04:54:00.277Z,87
2023-04-14T04:55:07.299Z,88
2023-04-14T04:56:14.331Z,88
2023-04-14T04:57:24.382Z,88
2023-04-14T04:58:35.052Z,88
2023-04-14T04:59:46.179Z,87
2023-04-14T05:00:53.134Z,88
2023-04-14T05:02:00.881Z,88
2023-04-14T05:03:07.745Z,88
2023-04-14T05:04:17.922Z,88
2023-04-14T05:05:26.345Z,88
2023-04-14T05:06:33.447Z,88
2023-04-14T05:07:43.367Z,88
2023-04-14T05:08:50.336Z,88
2023-04-14T05:09:57.675Z,88
2023-04-14T05:11:04.760Z,88
2023-04-14T05:12:11.753Z,89
2023-04-14T05:13:18.748Z,88
2023-04-14T05:14:27.357Z,88
2023-04-14T05:15:32.678Z,88
2023-04-14T05:16:39.693Z,88
2023-04-14T05:17:46.680Z,88
2023-04-14T05:19:01.542Z,88
2023-04-14T05:20:08.538Z,89
2023-04-14T05:21:15.742Z,88
2023-04-14T05:22:24.380Z,88
2023-04-14T05:23:35.187Z,89
2023-04-14T05:24:43.465Z,88
2023-04-14T05:25:53.186Z,89
2023-04-14T05:28:09.221Z,88
2023-04-14T05:29:16.227Z,88
2023-04-14T05:30:23.144Z,88
2023-04-14T05:31:30.226Z,88
2023-04-14T05:32:37.485Z,88
2023-04-14T05:33:45.341Z,88
2023-04-14T05:34:52.300Z,88
2023-04-14T05:35:59.207Z,88
2023-04-14T05:37:06.307Z,88
2023-04-14T05:38:13.362Z,88
2023-04-14T05:39:20.333Z,88
2023-04-14T05:40:27.365Z,87
2023-04-14T05:41:34.366Z,87
2023-04-14T05:42:41.371Z,87
2023-04-14T05:43:50.227Z,87
2023-04-14T05:44:57.250Z,87
2023-04-14T05:46:04.223Z,87
2023-04-14T05:47:11.133Z,87
2023-04-14T05:48:18.075Z,87
2023-04-14T05:49:24.982Z,87
2023-04-14T05:50:31.946Z,87
2023-04-14T05:51:38.917Z,87
2023-04-14T05:52:45.863Z,87
2023-04-14T05:53:52.809Z,87
2023-04-14T05:54:59.723Z,87
2023-04-14T05:56:10.349Z,87
2023-04-14T05:57:20.136Z,87
2023-04-14T05:58:28.103Z,87
2023-04-14T05:59:35.098Z,87
2023-04-14T06:01:48.773Z,87
2023-04-14T06:02:59.843Z,88
2023-04-14T06:04:07.625Z,87
2023-04-14T06:06:20.582Z,88
2023-04-14T06:07:27.554Z,87
2023-04-14T06:08:34.569Z,87
2023-04-14T06:09:41.457Z,87
2023-04-14T06:10:48.359Z,87
2023-04-14T06:11:55.427Z,87
2023-04-14T06:13:06.765Z,87
2023-04-14T06:14:14.206Z,87
2023-04-14T06:15:23.499Z,87
2023-04-14T06:16:34.503Z,87
2023-04-14T06:17:45.271Z,87
2023-04-14T06:18:53.129Z,87
2023-04-14T06:20:00.161Z,87
2023-04-14T06:21:10.504Z,87
2023-04-14T06:22:17.501Z,87
2023-04-14T06:23:24.493Z,87
2023-04-14T06:24:31.449Z,86
2023-04-14T06:25:38.581Z,87
2023-04-14T06:26:45.736Z,87
2023-04-14T06:27:52.660Z,87
2023-04-14T06:29:00.168Z,87
2023-04-14T06:30:06.943Z,87
2023-04-14T06:31:14.167Z,87
2023-04-14T06:32:21.300Z,87
2023-04-14T06:33:28.112Z,87
2023-04-14T06:34:35.250Z,87
2023-04-14T06:35:42.631Z,87
2023-04-14T06:36:49.699Z,87
2023-04-14T06:37:56.775Z,88
2023-04-14T06:39:06.862Z,88
2023-04-14T06:40:19.159Z,87
2023-04-14T06:41:26.261Z,87
2023-04-14T06:42:33.179Z,87
2023-04-14T06:43:40.190Z,87
2023-04-14T06:44:48.323Z,87
2023-04-14T06:45:55.386Z,87
2023-04-14T06:47:02.313Z,87
2023-04-14T06:48:09.372Z,87
2023-04-14T06:49:16.294Z,86
2023-04-14T06:50:23.225Z,86
2023-04-14T06:51:31.171Z,87
2023-04-14T06:52:38.060Z,87
2023-04-14T06:53:45.109Z,87
2023-04-14T06:54:52.143Z,87
2023-04-14T06:55:59.696Z,86
2023-04-14T06:57:06.977Z,87
2023-04-14T06:58:15.190Z,87
2023-04-14T06:59:22.192Z,87
2023-04-14T07:00:29.146Z,87
2023-04-14T07:01:36.205Z,86
2023-04-14T07:02:43.224Z,87
2023-04-14T07:03:50.126Z,87
2023-04-14T07:04:57.040Z,87
2023-04-14T07:06:04.366Z,87
2023-04-14T07:07:12.378Z,87
2023-04-14T07:08:19.377Z,87
2023-04-14T07:09:27.388Z,87
2023-04-14T07:10:34.345Z,87
2023-04-14T07:11:41.245Z,87
2023-04-14T07:12:48.269Z,86
2023-04-14T07:13:55.269Z,86
2023-04-14T07:15:02.307Z,87
2023-04-14T07:16:09.727Z,86
2023-04-14T07:17:16.655Z,86
2023-04-14T07:18:23.676Z,86
2023-04-14T07:19:30.544Z,86
2023-04-14T07:20:37.500Z,86
2023-04-14T07:21:45.109Z,86
2023-04-14T07:22:55.037Z,86
2023-04-14T07:24:02.215Z,86
2023-04-14T07:25:13.028Z,86
2023-04-14T07:26:24.199Z,86
2023-04-14T07:27:32.137Z,85
2023-04-14T07:28:39.218Z,86
2023-04-14T07:29:46.243Z,85
2023-04-14T07:30:53.181Z,85
2023-04-14T07:32:00.097Z,86
2023-04-14T07:33:07.159Z,86
2023-04-14T07:34:14.200Z,86
2023-04-14T07:35:21.964Z,87
2023-04-14T07:36:29.516Z,86
2023-04-14T07:37:36.446Z,86
2023-04-14T07:38:43.524Z,86
2023-04-14T07:39:50.729Z,86
2023-04-14T07:40:57.697Z,86
2023-04-14T07:42:08.528Z,85
2023-04-14T07:43:16.028Z,86
2023-04-14T07:44:22.902Z,86
2023-04-14T07:45:29.902Z,86
2023-04-14T07:46:36.887Z,86
2023-04-14T07:47:43.818Z,85
2023-04-14T07:48:50.791Z,85
2023-04-14T07:49:57.742Z,85
2023-04-14T07:51:04.686Z,85
2023-04-14T07:52:11.600Z,85
2023-04-14T07:53:18.706Z,85
2023-04-14T07:54:28.543Z,85
2023-04-14T07:55:38.665Z,85
2023-04-14T07:56:45.747Z,85
2023-04-14T07:57:53.340Z,85
2023-04-14T07:59:00.690Z,86
2023-04-14T08:00:08.114Z,86
2023-04-14T08:01:16.176Z,86
2023-04-14T08:02:23.222Z,86
2023-04-14T08:03:30.261Z,86
2023-04-14T08:04:37.240Z,86
2023-04-14T08:05:48.772Z,85
2023-04-14T08:06:55.889Z,86
2023-04-14T08:08:02.865Z,86
2023-04-14T08:09:11.856Z,85
2023-04-14T08:10:18.779Z,85
2023-04-14T08:11:28.839Z,86
2023-04-14T08:12:35.785Z,85
2023-04-14T08:13:42.844Z,85
2023-04-14T08:14:51.044Z,85
2023-04-14T08:16:00.822Z,85
2023-04-14T08:17:07.745Z,86
2023-04-14T08:18:14.818Z,85
2023-04-14T08:19:21.757Z,85
2023-04-14T08:20:30.443Z,85
2023-04-14T08:21:37.399Z,85
2023-04-14T08:22:48.132Z,85
2023-04-14T08:23:55.163Z,86
2023-04-14T08:25:02.105Z,85
2023-04-14T08:26:09.059Z,85
2023-04-14T08:27:18.459Z,86
2023-04-14T08:28:25.413Z,85
2023-04-14T08:29:32.464Z,85
2023-04-14T08:30:39.632Z,85
2023-04-14T08:31:46.526Z,85
2023-04-14T08:32:53.323Z,85
2023-04-14T08:34:00.138Z,85
2023-04-14T08:35:34.952Z,86
2023-04-14T08:36:16.067Z,85
2023-04-14T08:37:25.269Z,85
2023-04-14T08:38:32.277Z,86
2023-04-14T08:39:39.177Z,85
2023-04-14T08:40:46.175Z,85
2023-04-14T08:41:55.045Z,86
2023-04-14T08:43:02.143Z,85
2023-04-14T08:44:11.422Z,85
2023-04-14T08:45:22.926Z,85
2023-04-14T08:46:29.881Z,85
2023-04-14T08:47:40.018Z,85
2023-04-14T08:48:47.126Z,86
2023-04-14T08:49:59.108Z,86
2023-04-14T08:51:11.482Z,86
2023-04-14T08:52:28.709Z,86
2023-04-14T08:53:36.757Z,85
2023-04-14T08:54:43.707Z,85
2023-04-14T08:55:53.404Z,86
2023-04-14T08:57:00.386Z,85
2023-04-14T08:58:08.498Z,86
2023-04-14T08:59:17.524Z,86
2023-04-14T09:00:24.551Z,86
2023-04-14T09:01:32.580Z,86
2023-04-14T09:02:38.614Z,86
2023-04-14T09:03:45.512Z,86
2023-04-14T09:04:57.138Z,86
2023-04-14T09:06:07.363Z,86
2023-04-14T09:07:15.395Z,86
2023-04-14T09:08:22.270Z,87
2023-04-14T09:09:30.210Z,87
2023-04-14T09:10:37.147Z,87
2023-04-14T09:11:47.213Z,86
2023-04-14T09:12:54.057Z,86
2023-04-14T09:14:01.193Z,87
2023-04-14T09:15:08.230Z,87
2023-04-14T09:16:19.539Z,87
2023-04-14T09:17:26.458Z,87
2023-04-14T09:18:33.634Z,87
2023-04-14T09:20:37.052Z,86
2023-04-14T09:21:29.697Z,86
2023-04-14T09:21:57.827Z,86
2023-04-14T09:23:06.604Z,86
2023-04-14T09:24:16.757Z,86
2023-04-14T09:25:23.628Z,86
2023-04-14T09:26:30.640Z,86
2023-04-14T09:27:37.727Z,86
2023-04-14T09:28:45.452Z,86
2023-04-14T09:29:52.389Z,86
2023-04-14T09:30:59.347Z,86
2023-04-14T09:32:06.280Z,86
2023-04-14T09:33:13.224Z,86
2023-04-14T09:34:29.396Z,87
2023-04-14T09:35:37.506Z,86
2023-04-14T09:36:47.201Z,87
2023-04-14T09:38:02.058Z,87
2023-04-14T09:39:08.972Z,87
2023-04-14T09:40:18.930Z,87
2023-04-14T09:41:33.176Z,87
2023-04-14T09:42:40.172Z,87
2023-04-14T09:43:49.738Z,86
2023-04-14T09:44:56.619Z,87
2023-04-14T09:46:03.518Z,87
2023-04-14T09:47:10.422Z,87
2023-04-14T09:48:17.375Z,87
2023-04-14T09:49:24.297Z,87
2023-04-14T09:50:32.680Z,87
2023-04-14T09:51:49.460Z,87
2023-04-14T09:52:56.443Z,88
2023-04-14T09:54:06.793Z,87
2023-04-14T09:55:13.286Z,87
2023-04-14T09:56:21.354Z,87
2023-04-14T09:57:32.298Z,86
2023-04-14T09:58:39.292Z,86
2023-04-14T09:59:46.166Z,86
2023-04-14T10:00:53.145Z,87
2023-04-14T10:02:00.230Z,86
2023-04-14T10:03:07.155Z,86
2023-04-14T10:04:14.038Z,86
2023-04-14T10:05:27.001Z,85
2023-04-14T10:06:34.964Z,86
2023-04-14T10:07:41.970Z,85
2023-04-14T10:08:53.747Z,85
2023-04-14T10:10:00.780Z,85
2023-04-14T10:11:10.678Z,85
2023-04-14T10:12:20.519Z,85
2023-04-14T10:13:27.870Z,84
2023-04-14T10:14:34.901Z,84
2023-04-14T10:15:47.362Z,85
2023-04-14T10:16:54.341Z,84
2023-04-14T10:18:01.348Z,85
2023-04-14T10:19:08.376Z,85
2023-04-14T10:20:15.335Z,84
2023-04-14T10:21:22.363Z,85
2023-04-14T10:22:29.830Z,84
2023-04-14T10:23:39.477Z,84
2023-04-14T10:24:46.461Z,84
2023-04-14T10:25:53.430Z,84
2023-04-14T10:27:01.145Z,84
2023-04-14T10:28:08.088Z,84
2023-04-14T10:29:15.698Z,83
2023-04-14T10:30:23.513Z,83
2023-04-14T10:31:30.498Z,82
2023-04-14T10:32:45.497Z,79
2023-04-14T10:33:52.383Z,80
2023-04-14T10:35:02.834Z,78
2023-04-14T10:36:14.502Z,77
2023-04-14T10:37:27.353Z,76
2023-04-14T10:38:34.245Z,77
2023-04-14T10:39:41.130Z,78
2023-04-14T10:40:47.916Z,78
2023-04-14T10:41:54.812Z,76
2023-04-14T10:43:01.683Z,76
2023-04-14T10:44:08.477Z,75
2023-04-14T10:45:25.529Z,74
2023-04-14T10:46:33.055Z,73
2023-04-14T10:47:47.473Z,72
2023-04-14T10:48:54.335Z,73
2023-04-14T10:50:01.270Z,74
2023-04-14T10:51:13.231Z,74
2023-04-14T10:52:20.108Z,73
2023-04-14T10:53:29.535Z,72
2023-04-14T10:54:41.533Z,74
2023-04-14T10:55:56.122Z,73
2023-04-14T10:57:02.928Z,71
2023-04-14T10:58:15.512Z,72
2023-04-14T10:59:22.383Z,72
2023-04-14T11:00:29.195Z,72
2023-04-14T11:01:36.253Z,72
2023-04-14T11:02:43.093Z,72
2023-04-14T11:03:55.256Z,71
2023-04-14T11:05:03.581Z,70
2023-04-14T11:06:10.933Z,70
2023-04-14T11:07:18.076Z,71
2023-04-14T11:08:24.932Z,71
2023-04-14T11:09:31.816Z,71
2023-04-14T11:10:41.721Z,71
2023-04-14T11:11:51.802Z,70
2023-04-14T11:12:58.704Z,69
2023-04-14T11:14:05.609Z,68
2023-04-14T11:15:15.279Z,68
2023-04-14T11:16:22.174Z,68
2023-04-14T11:17:32.316Z,67
2023-04-14T11:18:43.427Z,67
2023-04-14T11:19:49.411Z,67
2023-04-14T11:20:56.243Z,67
2023-04-14T11:22:09.041Z,66
2023-04-14T11:23:15.956Z,67
2023-04-14T11:24:22.885Z,67
2023-04-14T11:25:29.737Z,66
2023-04-14T11:26:36.664Z,67
2023-04-14T11:27:43.469Z,66
2023-04-14T11:28:50.296Z,67
2023-04-14T11:29:58.008Z,66
2023-04-14T11:31:04.978Z,65
2023-04-14T11:32:12.005Z,66
2023-04-14T11:33:18.879Z,66
2023-04-14T11:34:25.670Z,66
2023-04-14T11:35:33.644Z,67
2023-04-14T11:36:40.632Z,66
2023-04-14T11:37:47.554Z,66
2023-04-14T11:38:57.145Z,66
2023-04-14T11:40:06.807Z,66
2023-04-14T11:41:14.747Z,67
2023-04-14T11:42:22.556Z,65
2023-04-14T11:43:29.403Z,65
2023-04-14T11:44:36.517Z,65
2023-04-14T11:45:43.627Z,65
2023-04-14T11:46:50.515Z,64
2023-04-14T11:47:58.644Z,65
2023-04-14T11:49:05.401Z,65
2023-04-14T11:50:12.281Z,65
2023-04-14T11:51:19.256Z,65
2023-04-14T11:52:31.176Z,65
2023-04-14T11:53:38.143Z,65
2023-04-14T11:54:45.169Z,66
2023-04-14T11:55:53.005Z,65
2023-04-14T11:56:59.904Z,65
2023-04-14T11:58:06.793Z,65
2023-04-14T11:59:13.805Z,65
2023-04-14T12:00:20.846Z,65
2023-04-14T12:01:30.718Z,64
2023-04-14T12:02:38.782Z,64
2023-04-14T12:03:45.582Z,63
2023-04-14T12:04:52.918Z,62
2023-04-14T12:05:59.463Z,62
2023-04-14T12:07:06.431Z,62
2023-04-14T12:08:13.269Z,62
2023-04-14T12:09:20.151Z,63
2023-04-14T12:10:28.771Z,63
2023-04-14T12:11:35.664Z,62
2023-04-14T12:12:42.554Z,62
2023-04-14T12:13:49.478Z,61
2023-04-14T12:14:56.322Z,61
2023-04-14T12:16:07.827Z,61
2023-04-14T12:17:15.826Z,61
2023-04-14T12:18:23.114Z,61
2023-04-14T12:19:30.230Z,60
2023-04-14T12:20:37.158Z,62
2023-04-14T12:21:49.146Z,62
2023-04-14T12:22:56.008Z,61
2023-04-14T12:24:05.789Z,62
2023-04-14T12:25:12.798Z,61
2023-04-14T12:26:19.819Z,61
2023-04-14T12:27:26.810Z,60
2023-04-14T12:28:35.392Z,59
2023-04-14T12:29:45.324Z,59
2023-04-14T12:30:53.281Z,59
2023-04-14T12:32:00.661Z,58
2023-04-14T12:33:15.138Z,58
2023-04-14T12:34:23.231Z,58
2023-04-14T12:35:30.155Z,58
2023-04-14T12:36:49.381Z,58
2023-04-14T12:37:43.938Z,57
2023-04-14T12:38:51.577Z,58
2023-04-14T12:39:58.570Z,58
2023-04-14T12:41:05.461Z,57
2023-04-14T12:42:12.386Z,57
2023-04-14T12:43:21.949Z,57
2023-04-14T12:44:38.570Z,58
2023-04-14T12:45:46.095Z,57
2023-04-14T12:46:53.820Z,56
2023-04-14T12:48:06.984Z,56
2023-04-14T12:49:16.682Z,56
2023-04-14T12:50:33.773Z,58
2023-04-14T12:51:41.785Z,57
2023-04-14T12:52:48.915Z,57
2023-04-14T12:53:55.849Z,56
2023-04-14T12:55:02.875Z,56
2023-04-14T12:56:14.373Z,56
2023-04-14T12:57:21.260Z,57
2023-04-14T12:58:31.481Z,57
2023-04-14T12:59:38.818Z,58
2023-04-14T13:00:45.742Z,59
2023-04-14T13:01:52.592Z,57
2023-04-14T13:03:02.235Z,57
2023-04-14T13:04:09.108Z,58
2023-04-14T13:05:17.372Z,58
2023-04-14T13:06:24.394Z,58
2023-04-14T13:07:31.511Z,59
2023-04-14T13:08:38.487Z,58
2023-04-14T13:09:45.457Z,58
2023-04-14T13:10:54.950Z,56
2023-04-14T13:12:02.755Z,56
2023-04-14T13:13:09.664Z,56
2023-04-14T13:14:16.570Z,57
2023-04-14T13:15:28.045Z,57
2023-04-14T13:16:36.211Z,57
2023-04-14T13:17:46.209Z,56
2023-04-14T13:18:59.828Z,57
2023-04-14T13:20:07.556Z,57
2023-04-14T13:21:15.341Z,57
2023-04-14T13:22:22.452Z,57
2023-04-14T13:23:30.453Z,56
2023-04-14T13:24:37.494Z,56
2023-04-14T13:25:45.497Z,57
2023-04-14T13:26:58.971Z,60
2023-04-14T13:28:14.366Z,58
2023-04-14T13:29:23.632Z,58
2023-04-14T13:30:32.947Z,57
2023-04-14T13:31:39.995Z,58
2023-04-14T13:32:46.930Z,60
2023-04-14T13:33:55.918Z,60
2023-04-14T13:35:02.877Z,57
2023-04-14T13:36:10.046Z,56
2023-04-14T13:37:18.758Z,56
2023-04-14T13:38:25.704Z,56
2023-04-14T13:39:32.524Z,56
2023-04-14T13:40:39.368Z,58
2023-04-14T13:41:46.232Z,58
2023-04-14T13:42:53.247Z,59
2023-04-14T13:44:00.329Z,57
2023-04-14T13:45:08.503Z,55
2023-04-14T13:46:16.603Z,55
2023-04-14T13:47:22.630Z,57
2023-04-14T13:48:32.071Z,56
2023-04-14T13:49:39.825Z,56
2023-04-14T13:50:47.140Z,56
2023-04-14T13:51:54.162Z,55
2023-04-14T13:53:02.245Z,55
2023-04-14T13:54:09.121Z,55
2023-04-14T13:55:20.204Z,55
2023-04-14T13:56:29.132Z,54
2023-04-14T13:57:37.170Z,54
2023-04-14T13:58:44.116Z,54
2023-04-14T13:59:50.984Z,55
2023-04-14T14:00:58.008Z,54
2023-04-14T14:02:05.128Z,54
2023-04-14T14:03:12.075Z,54
2023-04-14T14:04:18.883Z,55
2023-04-14T14:05:25.742Z,54
2023-04-14T14:06:32.606Z,54
2023-04-14T14:07:41.277Z,54
2023-04-14T14:08:48.262Z,53
2023-04-14T14:10:06.381Z,53
2023-04-14T14:11:13.571Z,52
2023-04-14T14:12:21.223Z,53
2023-04-14T14:13:30.490Z,54
2023-04-14T14:14:40.781Z,53
2023-04-14T14:15:49.576Z,53
2023-04-14T14:16:56.594Z,53
2023-04-14T14:18:03.433Z,53
2023-04-14T14:19:11.272Z,53
2023-04-14T14:20:22.526Z,54
2023-04-14T14:21:29.550Z,54
2023-04-14T14:22:36.447Z,54
2023-04-14T14:23:43.367Z,53
2023-04-14T14:24:50.335Z,53
2023-04-14T14:26:00.809Z,53
2023-04-14T14:27:07.848Z,53
2023-04-14T14:28:14.644Z,52
2023-04-14T14:29:23.685Z,52
2023-04-14T14:30:31.402Z,52
2023-04-14T14:31:42.302Z,53
2023-04-14T14:32:50.066Z,52
2023-04-14T14:33:58.448Z,53
2023-04-14T14:35:06.285Z,52
2023-04-14T14:36:13.310Z,52
2023-04-14T14:37:20.248Z,52
2023-04-14T14:38:27.111Z,53
2023-04-14T14:39:33.874Z,54
2023-04-14T14:40:41.708Z,55
2023-04-14T14:41:51.198Z,54
2023-04-14T14:42:58.921Z,53
2023-04-14T14:44:07.592Z,54
2023-04-14T14:45:14.479Z,54
2023-04-14T14:46:21.338Z,56
2023-04-14T14:47:28.162Z,56
2023-04-14T14:48:35.047Z,56
2023-04-14T14:49:52.931Z,56
2023-04-14T14:50:48.898Z,57
2023-04-14T14:51:55.755Z,57
2023-04-14T14:53:02.490Z,58
2023-04-14T14:54:10.413Z,58
2023-04-14T14:55:16.981Z,58
2023-04-14T14:56:25.713Z,58
2023-04-14T14:57:32.537Z,59
2023-04-14T14:58:39.434Z,59
2023-04-14T14:59:46.345Z,59
2023-04-14T15:00:53.264Z,60
2023-04-14T15:02:00.272Z,59
2023-04-14T15:03:08.040Z,60
2023-04-14T15:04:14.785Z,61
2023-04-14T15:05:21.650Z,61
2023-04-14T15:06:28.536Z,61
2023-04-14T15:07:35.362Z,61
2023-04-14T15:08:42.235Z,62
2023-04-14T15:09:49.092Z,62
2023-04-14T15:10:57.474Z,62
2023-04-14T15:12:04.357Z,63
2023-04-14T15:13:11.333Z,63
2023-04-14T15:14:18.232Z,63
2023-04-14T15:15:25.079Z,63
2023-04-14T15:16:31.935Z,64
2023-04-14T15:17:39.905Z,65
2023-04-14T15:18:46.704Z,66
2023-04-14T15:19:53.663Z,65
2023-04-14T15:21:00.562Z,65
2023-04-14T15:22:07.462Z,65
2023-04-14T15:23:14.307Z,65
2023-04-14T15:24:21.106Z,66
2023-04-14T15:25:28.043Z,65
2023-04-14T15:26:35.049Z,66
2023-04-14T15:27:41.883Z,66
2023-04-14T15:28:48.753Z,66
2023-04-14T15:29:55.578Z,66
2023-04-14T15:31:02.524Z,68
2023-04-14T15:32:09.512Z,68
2023-04-14T15:33:16.296Z,69
2023-04-14T15:34:23.309Z,69
2023-04-14T15:35:30.161Z,69
2023-04-14T15:36:39.679Z,69
2023-04-14T15:37:46.709Z,69
2023-04-14T15:38:53.535Z,69
2023-04-14T15:40:00.441Z,69
2023-04-14T15:41:07.351Z,69
2023-04-14T15:42:14.210Z,69
2023-04-14T15:43:21.248Z,69
2023-04-14T15:44:28.179Z,69
2023-04-14T15:45:35.100Z,69
2023-04-14T15:46:41.834Z,69
2023-04-14T15:47:48.608Z,69
2023-04-14T15:48:55.487Z,70
2023-04-14T15:50:07.526Z,68
2023-04-14T15:51:09.916Z,68
2023-04-14T15:52:16.373Z,68
2023-04-14T15:53:23.151Z,69
2023-04-14T15:54:30.021Z,68
2023-04-14T15:55:36.873Z,68
2023-04-14T15:56:43.737Z,68
2023-04-14T15:57:50.954Z,69
2023-04-14T15:58:57.429Z,68
2023-04-14T16:00:04.300Z,68
2023-04-14T16:01:11.577Z,68
2023-04-14T16:02:18.504Z,69
2023-04-14T16:03:25.494Z,69
2023-04-14T16:04:32.234Z,69
2023-04-14T16:05:38.932Z,69
2023-04-14T16:06:46.747Z,69
2023-04-14T16:07:52.880Z,69
2023-04-14T16:09:00.166Z,70
2023-04-14T16:10:06.844Z,70
2023-04-14T16:11:13.805Z,70
2023-04-14T16:12:20.673Z,70
2023-04-14T16:13:27.693Z,70